sensor_id;sensor_type;location;lat;lon;timestamp;temperature;humidity
44166;DHT22;30476;53.468;9.826;2023-06-24T00:02:06;18.30;99.90
44166;DHT22;30476;53.468;9.826;2023-06-24T00:04:32;18.20;99.90
44166;DHT22;30476;53.468;9.826;2023-06-24T00:06:59;18.20;99.90
44166;DHT22;30476;53.468;9.826;2023-06-24T00:09:28;18.20;99.90
44166;DHT22;30476;53.468;9.826;2023-06-24T00:11:58;18.20;99.90
44166;DHT22;30476;53.468;9.826;2023-06-24T00:14:25;18.10;99.90
44166;DHT22;30476;53.468;9.826;2023-06-24T00:16:55;18.10;99.90
44166;DHT22;30476;53.468;9.826;2023-06-24T00:19:24;18.10;99.90
44166;DHT22;30476;53.468;9.826;2023-06-24T00:21:51;18.10;99.90
44166;DHT22;30476;53.468;9.826;2023-06-24T00:24:21;18.10;99.90
44166;DHT22;30476;53.468;9.826;2023-06-24T00:26:51;18.10;99.90
44166;DHT22;30476;53.468;9.826;2023-06-24T00:29:18;18.00;99.90
44166;DHT22;30476;53.468;9.826;2023-06-24T00:31:43;18.00;99.90
44166;DHT22;30476;53.468;9.826;2023-06-24T00:34:09;17.90;99.90
44166;DHT22;30476;53.468;9.826;2023-06-24T00:36:35;17.90;99.90
44166;DHT22;30476;53.468;9.826;2023-06-24T00:39:02;17.90;99.90
44166;DHT22;30476;53.468;9.826;2023-06-24T00:41:35;17.90;99.90
44166;DHT22;30476;53.468;9.826;2023-06-24T00:44:02;17.80;99.90
44166;DHT22;30476;53.468;9.826;2023-06-24T00:46:28;17.80;99.90
44166;DHT22;30476;53.468;9.826;2023-06-24T00:48:55;17.80;99.90
44166;DHT22;30476;53.468;9.826;2023-06-24T00:51:21;17.80;99.90
44166;DHT22;30476;53.468;9.826;2023-06-24T00:53:53;17.80;99.90
44166;DHT22;30476;53.468;9.826;2023-06-24T00:56:21;17.70;99.90
44166;DHT22;30476;53.468;9.826;2023-06-24T00:58:47;17.70;99.90
44166;DHT22;30476;53.468;9.826;2023-06-24T01:01:14;17.70;99.90
44166;DHT22;30476;53.468;9.826;2023-06-24T01:03:40;17.60;99.90
44166;DHT22;30476;53.468;9.826;2023-06-24T01:06:07;17.60;99.90
44166;DHT22;30476;53.468;9.826;2023-06-24T01:08:34;17.50;99.90
44166;DHT22;30476;53.468;9.826;2023-06-24T01:11:00;17.50;99.90
44166;DHT22;30476;53.468;9.826;2023-06-24T01:13:26;17.50;99.90
44166;DHT22;30476;53.468;9.826;2023-06-24T01:15:52;17.50;99.90
44166;DHT22;30476;53.468;9.826;2023-06-24T01:18:32;17.50;99.90
44166;DHT22;30476;53.468;9.826;2023-06-24T01:21:15;17.40;99.90
44166;DHT22;30476;53.468;9.826;2023-06-24T01:32:33;17.30;99.90
44166;DHT22;30476;53.468;9.826;2023-06-24T01:35:09;17.30;99.90
44166;DHT22;30476;53.468;9.826;2023-06-24T01:37:38;17.20;99.90
44166;DHT22;30476;53.468;9.826;2023-06-24T01:40:13;17.10;99.90
44166;DHT22;30476;53.468;9.826;2023-06-24T01:42:42;17.10;99.90
44166;DHT22;30476;53.468;9.826;2023-06-24T01:45:19;17.00;99.90
44166;DHT22;30476;53.468;9.826;2023-06-24T01:47:47;17.10;99.90
44166;DHT22;30476;53.468;9.826;2023-06-24T01:50:15;17.00;99.90
44166;DHT22;30476;53.468;9.826;2023-06-24T01:52:43;17.00;99.90
44166;DHT22;30476;53.468;9.826;2023-06-24T01:55:12;16.90;99.90
44166;DHT22;30476;53.468;9.826;2023-06-24T01:57:42;16.90;99.90
44166;DHT22;30476;53.468;9.826;2023-06-24T02:00:09;16.90;99.90
44166;DHT22;30476;53.468;9.826;2023-06-24T02:02:37;16.80;99.90
44166;DHT22;30476;53.468;9.826;2023-06-24T02:05:05;16.80;99.90
44166;DHT22;30476;53.468;9.826;2023-06-24T02:07:33;16.70;99.90
44166;DHT22;30476;53.468;9.826;2023-06-24T02:09:59;16.70;99.90
44166;DHT22;30476;53.468;9.826;2023-06-24T02:12:26;16.70;99.90
44166;DHT22;30476;53.468;9.826;2023-06-24T02:14:55;16.60;99.90
44166;DHT22;30476;53.468;9.826;2023-06-24T02:17:24;16.60;99.90
44166;DHT22;30476;53.468;9.826;2023-06-24T02:19:50;16.60;99.90
44166;DHT22;30476;53.468;9.826;2023-06-24T02:22:17;16.60;99.90
44166;DHT22;30476;53.468;9.826;2023-06-24T02:24:44;16.60;99.90
44166;DHT22;30476;53.468;9.826;2023-06-24T02:27:11;16.50;99.90
44166;DHT22;30476;53.468;9.826;2023-06-24T02:29:38;16.50;99.90
44166;DHT22;30476;53.468;9.826;2023-06-24T02:32:05;16.50;99.90
44166;DHT22;30476;53.468;9.826;2023-06-24T02:34:31;16.50;99.90
44166;DHT22;30476;53.468;9.826;2023-06-24T02:36:57;16.50;99.90
44166;DHT22;30476;53.468;9.826;2023-06-24T02:39:23;16.40;99.90
44166;DHT22;30476;53.468;9.826;2023-06-24T02:41:49;16.40;99.90
44166;DHT22;30476;53.468;9.826;2023-06-24T02:44:15;16.40;99.90
44166;DHT22;30476;53.468;9.826;2023-06-24T02:46:43;16.30;99.90
44166;DHT22;30476;53.468;9.826;2023-06-24T02:49:12;16.30;99.90
44166;DHT22;30476;53.468;9.826;2023-06-24T02:51:39;16.30;99.90
44166;DHT22;30476;53.468;9.826;2023-06-24T02:54:06;16.30;99.90
44166;DHT22;30476;53.468;9.826;2023-06-24T02:56:33;16.30;99.90
44166;DHT22;30476;53.468;9.826;2023-06-24T02:58:59;16.20;99.90
44166;DHT22;30476;53.468;9.826;2023-06-24T03:01:25;16.20;99.90
44166;DHT22;30476;53.468;9.826;2023-06-24T03:03:53;16.20;99.90
44166;DHT22;30476;53.468;9.826;2023-06-24T03:06:21;16.10;99.90
44166;DHT22;30476;53.468;9.826;2023-06-24T03:08:50;16.10;99.90
44166;DHT22;30476;53.468;9.826;2023-06-24T03:11:17;16.10;99.90
44166;DHT22;30476;53.468;9.826;2023-06-24T03:13:43;16.10;99.90
44166;DHT22;30476;53.468;9.826;2023-06-24T03:16:09;16.10;99.90
44166;DHT22;30476;53.468;9.826;2023-06-24T03:18:40;16.00;99.90
44166;DHT22;30476;53.468;9.826;2023-06-24T03:21:06;16.00;99.90
44166;DHT22;30476;53.468;9.826;2023-06-24T03:23:32;16.00;99.90
44166;DHT22;30476;53.468;9.826;2023-06-24T03:25:58;16.00;99.90
44166;DHT22;30476;53.468;9.826;2023-06-24T03:28:23;16.10;99.90
44166;DHT22;30476;53.468;9.826;2023-06-24T03:30:49;16.00;99.90
44166;DHT22;30476;53.468;9.826;2023-06-24T03:33:15;16.00;99.90
44166;DHT22;30476;53.468;9.826;2023-06-24T03:35:43;15.90;99.90
44166;DHT22;30476;53.468;9.826;2023-06-24T03:38:08;15.90;99.90
44166;DHT22;30476;53.468;9.826;2023-06-24T03:40:34;15.90;99.90
44166;DHT22;30476;53.468;9.826;2023-06-24T03:43:00;15.90;99.90
44166;DHT22;30476;53.468;9.826;2023-06-24T03:45:26;15.90;99.90
44166;DHT22;30476;53.468;9.826;2023-06-24T03:47:52;15.90;99.90
44166;DHT22;30476;53.468;9.826;2023-06-24T03:50:17;15.90;99.90
44166;DHT22;30476;53.468;9.826;2023-06-24T03:52:43;15.90;99.90
44166;DHT22;30476;53.468;9.826;2023-06-24T03:55:12;15.90;99.90
44166;DHT22;30476;53.468;9.826;2023-06-24T03:57:38;15.90;99.90
44166;DHT22;30476;53.468;9.826;2023-06-24T04:00:04;15.90;99.90
44166;DHT22;30476;53.468;9.826;2023-06-24T04:02:42;15.90;99.90
44166;DHT22;30476;53.468;9.826;2023-06-24T04:05:09;15.90;99.90
44166;DHT22;30476;53.468;9.826;2023-06-24T04:07:35;16.00;99.90
44166;DHT22;30476;53.468;9.826;2023-06-24T04:10:04;16.00;99.90
44166;DHT22;30476;53.468;9.826;2023-06-24T04:12:37;16.00;99.90
44166;DHT22;30476;53.468;9.826;2023-06-24T04:15:03;16.10;99.90
44166;DHT22;30476;53.468;9.826;2023-06-24T04:17:30;16.10;99.90
44166;DHT22;30476;53.468;9.826;2023-06-24T04:19:56;16.10;99.90
44166;DHT22;30476;53.468;9.826;2023-06-24T04:22:22;16.10;99.90
44166;DHT22;30476;53.468;9.826;2023-06-24T04:24:48;16.20;99.90
44166;DHT22;30476;53.468;9.826;2023-06-24T04:27:14;16.20;99.90
44166;DHT22;30476;53.468;9.826;2023-06-24T04:29:40;16.20;99.90
44166;DHT22;30476;53.468;9.826;2023-06-24T04:32:06;16.20;99.90
44166;DHT22;30476;53.468;9.826;2023-06-24T04:34:32;16.20;99.90
44166;DHT22;30476;53.468;9.826;2023-06-24T04:36:58;16.30;99.90
44166;DHT22;30476;53.468;9.826;2023-06-24T04:39:24;16.30;99.90
44166;DHT22;30476;53.468;9.826;2023-06-24T04:41:49;16.30;99.90
44166;DHT22;30476;53.468;9.826;2023-06-24T04:44:15;16.30;99.90
44166;DHT22;30476;53.468;9.826;2023-06-24T04:46:41;16.40;99.90
44166;DHT22;30476;53.468;9.826;2023-06-24T04:49:07;16.40;99.90
44166;DHT22;30476;53.468;9.826;2023-06-24T04:51:32;16.30;99.90
44166;DHT22;30476;53.468;9.826;2023-06-24T04:53:58;16.40;99.90
44166;DHT22;30476;53.468;9.826;2023-06-24T04:56:25;16.40;99.90
44166;DHT22;30476;53.468;9.826;2023-06-24T04:58:51;16.50;99.90
44166;DHT22;30476;53.468;9.826;2023-06-24T05:01:17;16.50;99.90
44166;DHT22;30476;53.468;9.826;2023-06-24T05:03:43;16.50;99.90
44166;DHT22;30476;53.468;9.826;2023-06-24T05:06:09;16.50;99.90
44166;DHT22;30476;53.468;9.826;2023-06-24T05:08:35;16.60;99.90
44166;DHT22;30476;53.468;9.826;2023-06-24T05:11:00;16.60;99.90
44166;DHT22;30476;53.468;9.826;2023-06-24T05:13:27;16.60;99.90
44166;DHT22;30476;53.468;9.826;2023-06-24T05:15:53;16.60;99.90
44166;DHT22;30476;53.468;9.826;2023-06-24T05:18:19;16.60;99.90
44166;DHT22;30476;53.468;9.826;2023-06-24T05:20:44;16.60;99.90
44166;DHT22;30476;53.468;9.826;2023-06-24T05:23:10;16.60;99.90
44166;DHT22;30476;53.468;9.826;2023-06-24T05:25:35;16.70;99.90
44166;DHT22;30476;53.468;9.826;2023-06-24T05:28:01;16.80;99.90
44166;DHT22;30476;53.468;9.826;2023-06-24T05:30:27;16.90;99.90
44166;DHT22;30476;53.468;9.826;2023-06-24T05:32:53;16.90;99.90
44166;DHT22;30476;53.468;9.826;2023-06-24T05:35:18;16.90;99.90
44166;DHT22;30476;53.468;9.826;2023-06-24T05:37:44;16.90;99.90
44166;DHT22;30476;53.468;9.826;2023-06-24T05:40:10;17.00;99.90
44166;DHT22;30476;53.468;9.826;2023-06-24T05:42:38;17.00;99.90
44166;DHT22;30476;53.468;9.826;2023-06-24T05:45:04;17.10;99.90
44166;DHT22;30476;53.468;9.826;2023-06-24T05:47:32;17.00;99.90
44166;DHT22;30476;53.468;9.826;2023-06-24T05:49:58;17.00;99.90
44166;DHT22;30476;53.468;9.826;2023-06-24T05:52:24;17.20;99.90
44166;DHT22;30476;53.468;9.826;2023-06-24T05:54:50;17.30;99.90
44166;DHT22;30476;53.468;9.826;2023-06-24T05:57:16;17.30;99.90
44166;DHT22;30476;53.468;9.826;2023-06-24T05:59:41;17.40;99.90
44166;DHT22;30476;53.468;9.826;2023-06-24T06:02:07;17.40;99.90
44166;DHT22;30476;53.468;9.826;2023-06-24T06:04:33;17.50;99.90
44166;DHT22;30476;53.468;9.826;2023-06-24T06:06:59;17.50;99.90
44166;DHT22;30476;53.468;9.826;2023-06-24T06:09:24;17.60;99.90
44166;DHT22;30476;53.468;9.826;2023-06-24T06:11:50;17.70;99.90
44166;DHT22;30476;53.468;9.826;2023-06-24T06:14:16;17.70;99.90
44166;DHT22;30476;53.468;9.826;2023-06-24T06:16:42;17.70;99.90
44166;DHT22;30476;53.468;9.826;2023-06-24T06:19:07;17.80;99.90
44166;DHT22;30476;53.468;9.826;2023-06-24T06:21:33;17.80;99.90
44166;DHT22;30476;53.468;9.826;2023-06-24T06:23:59;17.90;99.90
44166;DHT22;30476;53.468;9.826;2023-06-24T06:26:25;18.00;99.90
44166;DHT22;30476;53.468;9.826;2023-06-24T06:28:50;18.00;99.90
44166;DHT22;30476;53.468;9.826;2023-06-24T06:31:18;18.20;99.90
44166;DHT22;30476;53.468;9.826;2023-06-24T06:33:44;18.20;99.90
44166;DHT22;30476;53.468;9.826;2023-06-24T06:36:10;18.20;99.90
44166;DHT22;30476;53.468;9.826;2023-06-24T06:38:36;18.30;99.90
44166;DHT22;30476;53.468;9.826;2023-06-24T06:41:01;18.30;99.90
44166;DHT22;30476;53.468;9.826;2023-06-24T06:43:27;18.40;99.90
44166;DHT22;30476;53.468;9.826;2023-06-24T06:45:53;18.50;99.90
44166;DHT22;30476;53.468;9.826;2023-06-24T06:48:19;18.60;99.90
44166;DHT22;30476;53.468;9.826;2023-06-24T06:50:45;18.70;99.90
44166;DHT22;30476;53.468;9.826;2023-06-24T06:53:11;18.80;99.90
44166;DHT22;30476;53.468;9.826;2023-06-24T06:55:37;18.90;99.90
44166;DHT22;30476;53.468;9.826;2023-06-24T06:58:05;19.00;99.90
44166;DHT22;30476;53.468;9.826;2023-06-24T07:00:31;19.10;99.90
44166;DHT22;30476;53.468;9.826;2023-06-24T07:02:56;19.10;99.90
44166;DHT22;30476;53.468;9.826;2023-06-24T07:05:22;19.30;99.90
44166;DHT22;30476;53.468;9.826;2023-06-24T07:07:48;19.40;99.90
44166;DHT22;30476;53.468;9.826;2023-06-24T07:10:15;19.50;99.90
44166;DHT22;30476;53.468;9.826;2023-06-24T07:12:42;19.60;99.90
44166;DHT22;30476;53.468;9.826;2023-06-24T07:15:08;19.70;99.90
44166;DHT22;30476;53.468;9.826;2023-06-24T07:17:34;19.80;99.90
44166;DHT22;30476;53.468;9.826;2023-06-24T07:20:00;19.90;99.90
44166;DHT22;30476;53.468;9.826;2023-06-24T07:22:26;19.90;99.90
44166;DHT22;30476;53.468;9.826;2023-06-24T07:24:52;20.00;99.90
44166;DHT22;30476;53.468;9.826;2023-06-24T07:27:17;20.10;99.90
44166;DHT22;30476;53.468;9.826;2023-06-24T07:29:43;20.10;99.90
44166;DHT22;30476;53.468;9.826;2023-06-24T07:32:09;20.20;99.90
44166;DHT22;30476;53.468;9.826;2023-06-24T07:34:35;20.20;99.90
44166;DHT22;30476;53.468;9.826;2023-06-24T07:37:01;20.30;99.90
44166;DHT22;30476;53.468;9.826;2023-06-24T07:39:26;20.40;99.90
44166;DHT22;30476;53.468;9.826;2023-06-24T07:41:52;20.40;99.90
44166;DHT22;30476;53.468;9.826;2023-06-24T07:44:18;20.50;99.90
44166;DHT22;30476;53.468;9.826;2023-06-24T07:46:45;20.60;99.90
44166;DHT22;30476;53.468;9.826;2023-06-24T07:49:10;20.60;99.90
44166;DHT22;30476;53.468;9.826;2023-06-24T07:51:36;20.80;99.90
44166;DHT22;30476;53.468;9.826;2023-06-24T07:54:02;20.90;99.90
44166;DHT22;30476;53.468;9.826;2023-06-24T07:56:28;20.90;99.90
44166;DHT22;30476;53.468;9.826;2023-06-24T07:58:53;21.00;99.90
44166;DHT22;30476;53.468;9.826;2023-06-24T08:01:19;21.10;99.90
44166;DHT22;30476;53.468;9.826;2023-06-24T08:03:45;21.20;99.90
44166;DHT22;30476;53.468;9.826;2023-06-24T08:06:11;21.30;99.90
44166;DHT22;30476;53.468;9.826;2023-06-24T08:08:36;21.40;99.90
44166;DHT22;30476;53.468;9.826;2023-06-24T08:11:03;21.50;99.90
44166;DHT22;30476;53.468;9.826;2023-06-24T08:13:29;21.60;99.90
44166;DHT22;30476;53.468;9.826;2023-06-24T08:15:54;21.70;99.90
44166;DHT22;30476;53.468;9.826;2023-06-24T08:18:20;21.80;99.90
44166;DHT22;30476;53.468;9.826;2023-06-24T08:20:46;21.90;99.90
44166;DHT22;30476;53.468;9.826;2023-06-24T08:23:12;22.00;99.90
44166;DHT22;30476;53.468;9.826;2023-06-24T08:25:37;22.00;99.90
44166;DHT22;30476;53.468;9.826;2023-06-24T08:28:03;22.10;99.90
44166;DHT22;30476;53.468;9.826;2023-06-24T08:30:29;22.20;99.90
44166;DHT22;30476;53.468;9.826;2023-06-24T08:32:55;22.20;99.90
44166;DHT22;30476;53.468;9.826;2023-06-24T08:35:21;22.30;99.90
44166;DHT22;30476;53.468;9.826;2023-06-24T08:37:47;22.40;99.90
44166;DHT22;30476;53.468;9.826;2023-06-24T08:40:13;22.50;99.90
44166;DHT22;30476;53.468;9.826;2023-06-24T08:42:38;22.60;99.90
44166;DHT22;30476;53.468;9.826;2023-06-24T08:45:04;22.60;99.90
44166;DHT22;30476;53.468;9.826;2023-06-24T08:47:30;22.70;99.90
44166;DHT22;30476;53.468;9.826;2023-06-24T08:50:11;22.80;99.90
44166;DHT22;30476;53.468;9.826;2023-06-24T08:52:38;22.90;99.90
44166;DHT22;30476;53.468;9.826;2023-06-24T08:55:06;23.00;99.90
44166;DHT22;30476;53.468;9.826;2023-06-24T08:57:35;23.10;99.90
44166;DHT22;30476;53.468;9.826;2023-06-24T09:00:01;23.20;99.90
44166;DHT22;30476;53.468;9.826;2023-06-24T09:02:30;23.20;99.90
44166;DHT22;30476;53.468;9.826;2023-06-24T09:04:58;23.30;99.90
44166;DHT22;30476;53.468;9.826;2023-06-24T09:07:27;23.30;99.90
44166;DHT22;30476;53.468;9.826;2023-06-24T09:09:56;23.50;99.90
44166;DHT22;30476;53.468;9.826;2023-06-24T09:12:24;23.60;99.90
44166;DHT22;30476;53.468;9.826;2023-06-24T09:14:51;23.60;99.90
44166;DHT22;30476;53.468;9.826;2023-06-24T09:17:17;23.70;99.90
44166;DHT22;30476;53.468;9.826;2023-06-24T09:19:43;23.70;99.90
44166;DHT22;30476;53.468;9.826;2023-06-24T09:22:09;23.80;99.90
44166;DHT22;30476;53.468;9.826;2023-06-24T09:24:44;23.80;99.90
44166;DHT22;30476;53.468;9.826;2023-06-24T09:27:14;23.90;99.90
44166;DHT22;30476;53.468;9.826;2023-06-24T09:29:41;23.90;99.90
44166;DHT22;30476;53.468;9.826;2023-06-24T09:32:08;24.00;99.90
44166;DHT22;30476;53.468;9.826;2023-06-24T09:34:35;24.10;99.90
44166;DHT22;30476;53.468;9.826;2023-06-24T09:37:01;24.20;99.90
44166;DHT22;30476;53.468;9.826;2023-06-24T09:39:28;24.40;99.90
44166;DHT22;30476;53.468;9.826;2023-06-24T09:42:00;24.50;99.90
44166;DHT22;30476;53.468;9.826;2023-06-24T09:44:27;24.60;99.90
44166;DHT22;30476;53.468;9.826;2023-06-24T09:46:54;24.70;99.90
44166;DHT22;30476;53.468;9.826;2023-06-24T09:49:21;24.80;99.90
44166;DHT22;30476;53.468;9.826;2023-06-24T09:51:55;24.90;99.70
44166;DHT22;30476;53.468;9.826;2023-06-24T09:54:21;24.90;99.90
44166;DHT22;30476;53.468;9.826;2023-06-24T09:56:49;24.90;99.90
44166;DHT22;30476;53.468;9.826;2023-06-24T09:59:17;25.00;99.90
44166;DHT22;30476;53.468;9.826;2023-06-24T10:01:47;25.10;99.90
44166;DHT22;30476;53.468;9.826;2023-06-24T10:04:19;25.30;99.90
44166;DHT22;30476;53.468;9.826;2023-06-24T10:06:46;25.40;99.70
44166;DHT22;30476;53.468;9.826;2023-06-24T10:09:12;25.40;99.40
44166;DHT22;30476;53.468;9.826;2023-06-24T10:11:39;25.50;99.90
44166;DHT22;30476;53.468;9.826;2023-06-24T10:14:06;25.60;99.30
44166;DHT22;30476;53.468;9.826;2023-06-24T10:16:31;25.60;99.10
44166;DHT22;30476;53.468;9.826;2023-06-24T10:19:01;25.70;98.90
44166;DHT22;30476;53.468;9.826;2023-06-24T10:21:51;25.70;99.40
44166;DHT22;30476;53.468;9.826;2023-06-24T10:27:37;25.90;98.80
44166;DHT22;30476;53.468;9.826;2023-06-24T10:30:04;25.90;98.20
44166;DHT22;30476;53.468;9.826;2023-06-24T10:32:40;25.90;98.00
44166;DHT22;30476;53.468;9.826;2023-06-24T10:35:27;25.90;97.80
44166;DHT22;30476;53.468;9.826;2023-06-24T10:37:57;26.00;97.80
44166;DHT22;30476;53.468;9.826;2023-06-24T10:40:41;26.10;98.70
44166;DHT22;30476;53.468;9.826;2023-06-24T10:43:27;26.20;98.60
44166;DHT22;30476;53.468;9.826;2023-06-24T10:45:55;26.20;97.70
44166;DHT22;30476;53.468;9.826;2023-06-24T10:48:21;26.20;97.30
44166;DHT22;30476;53.468;9.826;2023-06-24T10:50:50;26.30;97.40
44166;DHT22;30476;53.468;9.826;2023-06-24T10:53:16;26.40;97.30
44166;DHT22;30476;53.468;9.826;2023-06-24T10:55:44;26.40;97.70
44166;DHT22;30476;53.468;9.826;2023-06-24T10:58:13;26.50;98.60
44166;DHT22;30476;53.468;9.826;2023-06-24T11:00:40;26.60;98.00
44166;DHT22;30476;53.468;9.826;2023-06-24T11:03:10;26.70;97.90
44166;DHT22;30476;53.468;9.826;2023-06-24T11:05:44;26.80;97.60
44166;DHT22;30476;53.468;9.826;2023-06-24T11:08:10;26.90;98.10
44166;DHT22;30476;53.468;9.826;2023-06-24T11:10:48;27.00;96.20
44166;DHT22;30476;53.468;9.826;2023-06-24T11:13:14;27.00;97.00
44166;DHT22;30476;53.468;9.826;2023-06-24T11:15:41;27.10;96.40
44166;DHT22;30476;53.468;9.826;2023-06-24T11:18:09;27.10;95.40
44166;DHT22;30476;53.468;9.826;2023-06-24T11:20:37;27.30;96.00
44166;DHT22;30476;53.468;9.826;2023-06-24T11:23:06;27.30;94.60
44166;DHT22;30476;53.468;9.826;2023-06-24T11:25:41;27.40;95.00
44166;DHT22;30476;53.468;9.826;2023-06-24T11:28:19;27.30;94.50
44166;DHT22;30476;53.468;9.826;2023-06-24T11:30:45;27.30;94.60
44166;DHT22;30476;53.468;9.826;2023-06-24T11:33:11;27.30;94.30
44166;DHT22;30476;53.468;9.826;2023-06-24T11:35:37;27.30;94.60
44166;DHT22;30476;53.468;9.826;2023-06-24T11:38:03;27.20;93.90
44166;DHT22;30476;53.468;9.826;2023-06-24T11:40:31;27.30;94.70
44166;DHT22;30476;53.468;9.826;2023-06-24T11:43:00;27.30;95.00
44166;DHT22;30476;53.468;9.826;2023-06-24T11:45:26;27.50;94.70
44166;DHT22;30476;53.468;9.826;2023-06-24T11:47:52;27.50;94.80
44166;DHT22;30476;53.468;9.826;2023-06-24T11:50:18;27.60;94.70
44166;DHT22;30476;53.468;9.826;2023-06-24T11:52:50;27.60;94.30
44166;DHT22;30476;53.468;9.826;2023-06-24T11:55:19;27.70;94.60
44166;DHT22;30476;53.468;9.826;2023-06-24T11:57:55;27.80;94.00
44166;DHT22;30476;53.468;9.826;2023-06-24T12:00:26;28.00;94.80
44166;DHT22;30476;53.468;9.826;2023-06-24T12:03:01;28.10;93.50
44166;DHT22;30476;53.468;9.826;2023-06-24T12:05:34;28.30;94.00
44166;DHT22;30476;53.468;9.826;2023-06-24T12:08:06;28.40;92.70
44166;DHT22;30476;53.468;9.826;2023-06-24T12:10:33;28.40;93.50
44166;DHT22;30476;53.468;9.826;2023-06-24T12:13:00;28.50;92.30
44166;DHT22;30476;53.468;9.826;2023-06-24T12:15:27;28.50;92.40
44166;DHT22;30476;53.468;9.826;2023-06-24T12:17:53;28.50;92.30
44166;DHT22;30476;53.468;9.826;2023-06-24T12:20:19;28.40;92.30
44166;DHT22;30476;53.468;9.826;2023-06-24T12:22:46;28.50;94.50
44166;DHT22;30476;53.468;9.826;2023-06-24T12:25:12;28.60;91.70
44166;DHT22;30476;53.468;9.826;2023-06-24T12:27:38;28.70;92.70
44166;DHT22;30476;53.468;9.826;2023-06-24T12:30:06;28.70;91.50
44166;DHT22;30476;53.468;9.826;2023-06-24T12:32:32;28.70;91.90
44166;DHT22;30476;53.468;9.826;2023-06-24T12:34:59;28.70;90.00
44166;DHT22;30476;53.468;9.826;2023-06-24T12:37:25;28.60;90.60
44166;DHT22;30476;53.468;9.826;2023-06-24T12:39:51;28.50;91.70
44166;DHT22;30476;53.468;9.826;2023-06-24T12:42:17;28.50;91.10
44166;DHT22;30476;53.468;9.826;2023-06-24T12:44:43;28.50;89.70
44166;DHT22;30476;53.468;9.826;2023-06-24T12:47:09;28.60;90.90
44166;DHT22;30476;53.468;9.826;2023-06-24T12:49:35;28.70;91.80
44166;DHT22;30476;53.468;9.826;2023-06-24T12:52:01;28.90;90.40
44166;DHT22;30476;53.468;9.826;2023-06-24T12:54:27;28.90;89.70
44166;DHT22;30476;53.468;9.826;2023-06-24T12:56:53;28.90;88.40
44166;DHT22;30476;53.468;9.826;2023-06-24T12:59:19;28.90;88.90
44166;DHT22;30476;53.468;9.826;2023-06-24T13:01:44;28.80;90.30
44166;DHT22;30476;53.468;9.826;2023-06-24T13:04:11;28.70;90.80
44166;DHT22;30476;53.468;9.826;2023-06-24T13:06:37;28.60;90.10
44166;DHT22;30476;53.468;9.826;2023-06-24T13:09:03;28.50;89.90
44166;DHT22;30476;53.468;9.826;2023-06-24T13:11:28;28.40;90.20
44166;DHT22;30476;53.468;9.826;2023-06-24T13:13:54;28.40;91.40
44166;DHT22;30476;53.468;9.826;2023-06-24T13:16:20;28.60;90.00
44166;DHT22;30476;53.468;9.826;2023-06-24T13:18:46;28.70;89.80
44166;DHT22;30476;53.468;9.826;2023-06-24T13:21:13;28.80;90.30
44166;DHT22;30476;53.468;9.826;2023-06-24T13:23:39;29.00;90.70
44166;DHT22;30476;53.468;9.826;2023-06-24T13:26:06;29.20;88.90
44166;DHT22;30476;53.468;9.826;2023-06-24T13:28:32;29.30;89.50
44166;DHT22;30476;53.468;9.826;2023-06-24T13:30:58;29.30;88.10
44166;DHT22;30476;53.468;9.826;2023-06-24T13:33:24;29.40;88.30
44166;DHT22;30476;53.468;9.826;2023-06-24T13:35:51;29.40;88.50
44166;DHT22;30476;53.468;9.826;2023-06-24T13:38:17;29.40;89.30
44166;DHT22;30476;53.468;9.826;2023-06-24T13:40:43;29.40;90.10
44166;DHT22;30476;53.468;9.826;2023-06-24T13:43:09;29.40;90.40
44166;DHT22;30476;53.468;9.826;2023-06-24T13:45:35;29.30;86.50
44166;DHT22;30476;53.468;9.826;2023-06-24T13:48:01;29.20;86.90
44166;DHT22;30476;53.468;9.826;2023-06-24T13:50:27;29.00;85.80
44166;DHT22;30476;53.468;9.826;2023-06-24T13:52:52;28.90;86.70
44166;DHT22;30476;53.468;9.826;2023-06-24T13:55:18;28.80;88.10
44166;DHT22;30476;53.468;9.826;2023-06-24T13:57:44;28.70;88.10
44166;DHT22;30476;53.468;9.826;2023-06-24T14:00:10;28.60;88.90
44166;DHT22;30476;53.468;9.826;2023-06-24T14:02:36;28.60;88.80
44166;DHT22;30476;53.468;9.826;2023-06-24T14:05:03;28.70;90.60
44166;DHT22;30476;53.468;9.826;2023-06-24T14:07:29;28.80;90.10
44166;DHT22;30476;53.468;9.826;2023-06-24T14:09:55;28.80;89.30
44166;DHT22;30476;53.468;9.826;2023-06-24T14:12:21;28.90;88.90
44166;DHT22;30476;53.468;9.826;2023-06-24T14:14:46;28.80;87.80
44166;DHT22;30476;53.468;9.826;2023-06-24T14:17:12;28.70;87.70
44166;DHT22;30476;53.468;9.826;2023-06-24T14:19:39;28.80;89.40
44166;DHT22;30476;53.468;9.826;2023-06-24T14:22:05;28.80;88.60
44166;DHT22;30476;53.468;9.826;2023-06-24T14:24:31;28.80;88.10
44166;DHT22;30476;53.468;9.826;2023-06-24T14:26:57;28.70;85.50
44166;DHT22;30476;53.468;9.826;2023-06-24T14:29:23;28.50;87.00
44166;DHT22;30476;53.468;9.826;2023-06-24T14:31:49;28.50;86.30
44166;DHT22;30476;53.468;9.826;2023-06-24T14:34:15;28.40;87.40
44166;DHT22;30476;53.468;9.826;2023-06-24T14:36:41;28.40;85.90
44166;DHT22;30476;53.468;9.826;2023-06-24T14:39:06;28.40;86.90
44166;DHT22;30476;53.468;9.826;2023-06-24T14:41:32;28.40;86.10
44166;DHT22;30476;53.468;9.826;2023-06-24T14:43:58;28.30;86.90
44166;DHT22;30476;53.468;9.826;2023-06-24T14:46:24;28.30;88.60
44166;DHT22;30476;53.468;9.826;2023-06-24T14:48:49;28.20;88.30
44166;DHT22;30476;53.468;9.826;2023-06-24T14:51:15;28.20;88.40
44166;DHT22;30476;53.468;9.826;2023-06-24T14:53:41;28.20;87.90
44166;DHT22;30476;53.468;9.826;2023-06-24T14:56:07;28.30;87.60
44166;DHT22;30476;53.468;9.826;2023-06-24T14:58:33;28.20;86.60
44166;DHT22;30476;53.468;9.826;2023-06-24T15:00:58;28.20;87.50
44166;DHT22;30476;53.468;9.826;2023-06-24T15:03:24;28.00;85.60
44166;DHT22;30476;53.468;9.826;2023-06-24T15:05:50;28.00;86.20
44166;DHT22;30476;53.468;9.826;2023-06-24T15:08:15;27.90;87.10
44166;DHT22;30476;53.468;9.826;2023-06-24T15:10:41;27.80;87.00
44166;DHT22;30476;53.468;9.826;2023-06-24T15:13:07;27.70;87.10
44166;DHT22;30476;53.468;9.826;2023-06-24T15:15:33;27.70;88.70
44166;DHT22;30476;53.468;9.826;2023-06-24T15:17:58;27.70;89.20
44166;DHT22;30476;53.468;9.826;2023-06-24T15:20:25;27.70;88.90
44166;DHT22;30476;53.468;9.826;2023-06-24T15:22:51;27.70;89.70
44166;DHT22;30476;53.468;9.826;2023-06-24T15:25:17;27.70;89.50
44166;DHT22;30476;53.468;9.826;2023-06-24T15:27:43;27.70;90.20
44166;DHT22;30476;53.468;9.826;2023-06-24T15:30:09;27.70;90.00
44166;DHT22;30476;53.468;9.826;2023-06-24T15:32:34;27.70;89.70
44166;DHT22;30476;53.468;9.826;2023-06-24T15:35:04;27.70;89.50
44166;DHT22;30476;53.468;9.826;2023-06-24T15:37:29;27.60;89.30
44166;DHT22;30476;53.468;9.826;2023-06-24T15:39:55;27.60;89.90
44166;DHT22;30476;53.468;9.826;2023-06-24T15:42:21;27.70;90.20